createdAt,value
2019-02-15T00:00:42.006Z,35.17
2019-02-15T00:03:19.026Z,36.70
2019-02-15T00:05:51.811Z,37.27
2019-02-15T00:08:24.542Z,36.73
2019-02-15T00:10:57.350Z,36.70
2019-02-15T00:13:30.826Z,37.00
2019-02-15T00:16:02.527Z,36.97
2019-02-15T00:18:42.838Z,36.30
2019-02-15T00:21:17.109Z,35.17
2019-02-15T00:23:53.309Z,33.83
2019-02-15T00:26:25.306Z,35.37
2019-02-15T00:28:58.223Z,34.80
2019-02-15T00:31:30.229Z,33.43
2019-02-15T00:34:01.586Z,34.53
2019-02-15T00:36:34.585Z,33.83
2019-02-15T00:39:07.785Z,32.70
2019-02-15T00:41:40.229Z,32.63
2019-02-15T00:44:13.485Z,30.77
2019-02-15T00:46:58.250Z,32.40
2019-02-15T00:49:39.407Z,32.67
2019-02-15T00:52:16.328Z,31.53
2019-02-15T00:55:05.117Z,30.70
2019-02-15T00:58:02.769Z,28.60
2019-02-15T01:00:53.197Z,30.40
2019-02-15T01:07:14.997Z,30.13
2019-02-15T01:10:19.723Z,30.60
2019-02-15T01:13:10.407Z,30.73
2019-02-15T01:15:41.789Z,29.10
2019-02-15T01:18:20.321Z,30.77
2019-02-15T01:20:52.392Z,31.03
2019-02-15T01:23:23.587Z,30.57
2019-02-15T01:26:22.952Z,30.70
2019-02-15T01:29:22.195Z,29.80
2019-02-15T01:32:11.812Z,29.73
2019-02-15T01:34:58.785Z,30.57
2019-02-15T01:38:01.810Z,29.07
2019-02-15T01:40:58.786Z,30.27
2019-02-15T01:43:49.423Z,30.20
2019-02-15T01:46:30.476Z,28.70
2019-02-15T01:49:01.673Z,28.77
2019-02-15T01:51:33.290Z,26.60
2019-02-15T01:54:04.739Z,28.80
2019-02-15T01:56:43.424Z,28.67
2019-02-15T01:59:14.616Z,29.20
2019-02-15T02:01:47.251Z,27.67
2019-02-15T02:04:18.592Z,27.13
2019-02-15T02:06:50.088Z,25.87
2019-02-15T02:11:54.228Z,27.40
2019-02-15T02:14:29.261Z,26.17
2019-02-15T02:17:02.482Z,25.10
2019-02-15T02:19:41.601Z,25.03
2019-02-15T02:30:05.187Z,25.67
2019-02-15T02:32:39.445Z,25.37
2019-02-15T02:35:22.413Z,25.43
2019-02-15T02:41:08.974Z,24.23
2019-02-15T02:43:59.223Z,25.07
2019-02-15T02:46:31.679Z,23.37
2019-02-15T02:49:11.521Z,23.90
2019-02-15T02:51:44.927Z,24.67
2019-02-15T02:54:23.878Z,24.20
2019-02-15T02:56:55.603Z,27.00
2019-02-15T02:59:28.942Z,25.47
2019-02-15T03:02:00.741Z,23.47
2019-02-15T03:04:32.257Z,23.57
2019-02-15T03:07:12.060Z,25.07
2019-02-15T03:09:59.021Z,25.63
2019-02-15T03:12:30.753Z,25.00
2019-02-15T03:15:02.103Z,25.77
2019-02-15T03:17:33.093Z,24.97
2019-02-15T03:20:04.403Z,24.40
2019-02-15T03:22:39.558Z,24.00
2019-02-15T03:25:11.215Z,25.53
2019-02-15T03:27:42.998Z,22.30
2019-02-15T03:30:14.038Z,23.93
2019-02-15T03:32:45.698Z,23.43
2019-02-15T03:35:17.037Z,23.53
2019-02-15T03:38:06.755Z,24.77
2019-02-15T03:40:42.959Z,23.47
2019-02-15T03:43:14.504Z,25.27
2019-02-15T03:45:46.709Z,25.20
2019-02-15T03:48:19.432Z,25.80
2019-02-15T03:50:51.658Z,24.80
2019-02-15T03:53:23.237Z,25.97
2019-02-15T03:55:54.615Z,25.20
2019-02-15T03:58:26.530Z,25.80
2019-02-15T04:00:57.832Z,24.53
2019-02-15T04:03:28.446Z,25.00
2019-02-15T04:05:59.110Z,25.30
2019-02-15T04:08:32.154Z,25.80
2019-02-15T04:11:03.608Z,23.93
2019-02-15T04:13:35.535Z,26.17
2019-02-15T04:16:06.888Z,23.03
2019-02-15T04:18:37.665Z,24.23
2019-02-15T04:21:09.065Z,24.70
2019-02-15T04:23:42.634Z,24.87
2019-02-15T04:26:14.153Z,25.40
2019-02-15T04:28:45.474Z,24.00
2019-02-15T04:31:16.967Z,25.07
2019-02-15T04:33:48.327Z,24.83
2019-02-15T04:36:19.581Z,25.40
2019-02-15T04:38:51.157Z,25.80
2019-02-15T04:41:22.623Z,24.87
2019-02-15T04:43:59.289Z,24.60
2019-02-15T04:46:50.125Z,22.67
2019-02-15T04:52:17.906Z,25.60
2019-02-15T04:54:46.371Z,23.97
2019-02-15T04:57:17.425Z,25.40
2019-02-15T04:59:48.205Z,26.10
2019-02-15T05:02:24.251Z,25.37
2019-02-15T05:05:06.978Z,25.83
2019-02-15T05:07:54.955Z,27.67
2019-02-15T05:10:48.780Z,27.73
2019-02-15T05:13:08.527Z,31.17
2019-02-15T05:15:50.593Z,32.17
2019-02-15T05:18:21.105Z,31.73
2019-02-15T05:20:52.608Z,32.43
2019-02-15T05:23:27.168Z,35.93
2019-02-15T05:25:59.786Z,34.47
2019-02-15T05:28:32.001Z,36.03
2019-02-15T05:31:03.430Z,34.77
2019-02-15T05:33:35.676Z,33.67
2019-02-15T05:36:06.481Z,35.10
2019-02-15T05:38:38.257Z,37.63
2019-02-15T05:41:08.954Z,42.63
2019-02-15T05:43:39.802Z,40.97
2019-02-15T05:46:10.333Z,41.00
2019-02-15T05:48:42.185Z,40.07
2019-02-15T05:51:12.873Z,41.10
2019-02-15T05:53:44.643Z,42.47
2019-02-15T05:56:16.024Z,42.00
2019-02-15T05:58:47.519Z,42.20
2019-02-15T06:01:19.371Z,42.50
2019-02-15T06:03:50.470Z,41.87
2019-02-15T06:06:21.034Z,40.83
2019-02-15T06:08:52.194Z,43.87
2019-02-15T06:11:23.039Z,40.93
2019-02-15T06:13:54.239Z,44.20
2019-02-15T06:16:25.603Z,43.33
2019-02-15T06:18:56.769Z,42.00
2019-02-15T06:21:29.561Z,42.27
2019-02-15T06:24:02.456Z,44.70
2019-02-15T06:26:33.803Z,43.93
2019-02-15T06:29:05.186Z,43.23
2019-02-15T06:51:37.206Z,47.00
2019-02-15T06:54:07.898Z,47.77
2019-02-15T07:01:58.987Z,50.00
2019-02-15T07:04:34.948Z,52.60
2019-02-15T07:07:06.424Z,51.80
2019-02-15T07:09:38.455Z,49.63
2019-02-15T07:12:09.730Z,51.00
2019-02-15T07:14:41.872Z,48.67
2019-02-15T07:17:12.668Z,48.83
2019-02-15T07:19:43.944Z,48.93
2019-02-15T07:22:15.564Z,47.40
2019-02-15T07:24:47.338Z,48.90
2019-02-15T07:27:18.805Z,45.77
2019-02-15T07:29:50.425Z,56.63
2019-02-15T07:32:22.110Z,49.37
2019-02-15T07:34:53.526Z,49.47
2019-02-15T07:37:24.818Z,49.43
2019-02-15T07:39:56.063Z,50.80
2019-02-15T07:42:27.469Z,49.60
2019-02-15T07:44:58.659Z,51.07
2019-02-15T07:47:30.037Z,52.13
2019-02-15T07:50:01.363Z,50.10
2019-02-15T07:52:33.184Z,49.53
2019-02-15T07:55:04.489Z,49.67
2019-02-15T07:57:36.478Z,49.63
2019-02-15T08:00:09.093Z,49.73
2019-02-15T08:02:41.901Z,50.90
2019-02-15T08:05:13.266Z,50.87
2019-02-15T08:07:44.533Z,50.17
2019-02-15T08:10:15.383Z,52.73
2019-02-15T08:12:47.230Z,50.87
2019-02-15T08:15:18.545Z,50.77
2019-02-15T08:17:50.030Z,56.27
2019-02-15T08:20:20.984Z,52.50
2019-02-15T08:22:52.173Z,56.37
2019-02-15T08:25:23.778Z,63.40
2019-02-15T08:27:56.038Z,59.70
2019-02-15T08:30:27.463Z,60.67
2019-02-15T08:32:58.814Z,59.13
2019-02-15T08:35:29.761Z,56.67
2019-02-15T08:38:00.926Z,59.50
2019-02-15T08:40:32.260Z,54.27
2019-02-15T08:43:03.131Z,54.13
2019-02-15T08:45:34.366Z,52.37
2019-02-15T08:48:05.738Z,51.07
2019-02-15T08:50:37.074Z,51.90
2019-02-15T08:53:08.576Z,55.40
2019-02-15T08:55:41.126Z,50.90
2019-02-15T08:58:11.829Z,52.87
2019-02-15T09:00:43.758Z,50.80
2019-02-15T09:03:14.173Z,51.57
2019-02-15T09:05:45.764Z,48.53
2019-02-15T09:08:16.458Z,51.87
2019-02-15T09:10:47.506Z,53.60
2019-02-15T09:13:19.107Z,47.17
2019-02-15T09:15:50.478Z,52.33
2019-02-15T09:18:21.611Z,50.87
2019-02-15T09:20:52.858Z,52.73
2019-02-15T09:23:23.589Z,53.37
2019-02-15T09:25:54.194Z,55.27
2019-02-15T09:28:39.117Z,49.90
2019-02-15T09:31:10.736Z,51.13
2019-02-15T09:33:43.577Z,52.33
2019-02-15T09:36:14.862Z,51.93
2019-02-15T09:38:46.530Z,50.63
2019-02-15T09:41:17.787Z,51.50
2019-02-15T09:43:48.510Z,49.23
2019-02-15T09:46:20.224Z,49.70
2019-02-15T09:48:51.625Z,51.27
2019-02-15T09:51:22.808Z,49.17
2019-02-15T09:53:54.022Z,50.37
2019-02-15T09:56:25.078Z,51.00
2019-02-15T09:58:56.446Z,52.63
2019-02-15T10:01:27.881Z,50.10
2019-02-15T10:03:58.495Z,52.93
2019-02-15T10:06:30.046Z,53.27
2019-02-15T10:09:01.567Z,49.83
2019-02-15T10:11:33.958Z,52.23
2019-02-15T10:14:05.277Z,51.27
2019-02-15T10:16:36.867Z,52.23
2019-02-15T10:19:07.677Z,53.37
2019-02-15T10:21:38.774Z,51.33
2019-02-15T10:24:10.169Z,49.33
2019-02-15T10:26:42.185Z,47.93
2019-02-15T10:29:13.529Z,47.87
2019-02-15T10:31:44.931Z,45.40
2019-02-15T10:34:16.773Z,44.17
2019-02-15T10:36:48.089Z,46.13
2019-02-15T10:39:20.140Z,43.43
2019-02-15T10:41:52.052Z,44.20
2019-02-15T10:44:23.372Z,44.47
2019-02-15T10:46:54.657Z,42.53
2019-02-15T10:49:25.950Z,45.27
2019-02-15T10:51:57.298Z,46.33
2019-02-15T10:54:32.710Z,45.33
2019-02-15T10:57:03.901Z,44.23
2019-02-15T10:59:35.266Z,45.80
2019-02-15T11:02:09.301Z,42.40
2019-02-15T11:04:41.298Z,40.43
2019-02-15T11:07:12.751Z,38.40
2019-02-15T11:09:43.966Z,40.97
2019-02-15T11:12:15.468Z,41.07
2019-02-15T11:14:46.811Z,42.50
2019-02-15T11:17:18.226Z,42.43
2019-02-15T11:19:49.862Z,41.67
2019-02-15T11:22:21.220Z,39.03
2019-02-15T11:24:52.506Z,39.67
2019-02-15T11:27:23.826Z,38.00
2019-02-15T11:29:55.347Z,39.43
2019-02-15T11:32:26.620Z,40.00
2019-02-15T11:34:57.895Z,40.37
2019-02-15T11:37:29.222Z,40.60
2019-02-15T11:40:01.859Z,42.73
2019-02-15T11:42:33.029Z,44.23
2019-02-15T11:45:04.332Z,40.87
2019-02-15T11:47:36.233Z,41.83
2019-02-15T11:50:08.513Z,42.30
2019-02-15T11:52:41.334Z,40.03
2019-02-15T11:55:12.985Z,42.17
2019-02-15T11:57:44.501Z,42.27
2019-02-15T12:00:20.381Z,39.00
2019-02-15T12:02:52.843Z,39.37
2019-02-15T12:05:24.173Z,38.13
2019-02-15T12:07:57.429Z,38.90
2019-02-15T12:10:28.773Z,37.93
2019-02-15T12:13:00.065Z,37.60
2019-02-15T12:15:32.284Z,35.37
2019-02-15T12:18:03.734Z,35.20
2019-02-15T12:20:35.081Z,35.43
2019-02-15T12:23:05.676Z,37.30
2019-02-15T12:25:37.844Z,38.37
2019-02-15T12:28:08.975Z,37.40
2019-02-15T12:30:40.830Z,33.90
2019-02-15T12:33:12.038Z,35.93
2019-02-15T12:35:43.425Z,34.23
2019-02-15T12:38:14.941Z,33.93
2019-02-15T12:40:45.770Z,35.63
2019-02-15T12:43:17.693Z,35.33
2019-02-15T12:45:48.944Z,34.17
2019-02-15T12:48:20.720Z,34.93
2019-02-15T12:50:52.012Z,35.53
2019-02-15T12:53:23.380Z,33.93
2019-02-15T12:55:55.163Z,34.17
2019-02-15T12:58:26.494Z,31.40
2019-02-15T13:00:57.787Z,31.17
2019-02-15T13:03:29.029Z,33.77
2019-02-15T13:06:01.263Z,33.37
2019-02-15T13:08:33.048Z,33.40
2019-02-15T13:11:04.464Z,33.23
2019-02-15T13:13:35.871Z,35.47
2019-02-15T13:16:07.327Z,33.63
2019-02-15T13:18:41.065Z,32.10
2019-02-15T13:21:11.945Z,32.13
2019-02-15T13:23:43.124Z,34.37
2019-02-15T13:26:14.433Z,32.63
2019-02-15T13:28:45.836Z,31.37
2019-02-15T13:31:17.114Z,32.20
2019-02-15T13:33:48.451Z,32.73
2019-02-15T13:36:19.989Z,33.53
2019-02-15T13:38:51.867Z,31.47
2019-02-15T13:41:24.608Z,31.37
2019-02-15T13:43:55.441Z,33.33
2019-02-15T13:46:26.802Z,33.40
2019-02-15T13:48:59.179Z,32.33
2019-02-15T13:51:30.981Z,34.67
2019-02-15T13:54:04.240Z,34.07
2019-02-15T13:56:40.447Z,32.83
2019-02-15T13:59:10.993Z,32.17
2019-02-15T14:01:41.469Z,33.00
2019-02-15T14:04:12.535Z,32.17
2019-02-15T14:06:45.593Z,33.23
2019-02-15T14:09:17.044Z,32.80
2019-02-15T14:11:48.251Z,33.27
2019-02-15T14:14:20.729Z,34.53
2019-02-15T14:16:53.726Z,31.57
2019-02-15T14:19:24.952Z,32.70
2019-02-15T14:21:56.564Z,30.53
2019-02-15T14:24:28.454Z,33.57
2019-02-15T14:27:00.398Z,31.40
2019-02-15T14:29:32.521Z,33.17
2019-02-15T14:32:05.289Z,34.60
2019-02-15T14:34:38.791Z,34.33
2019-02-15T14:37:09.660Z,33.73
2019-02-15T14:39:42.249Z,31.90
2019-02-15T14:42:13.939Z,32.90
2019-02-15T14:44:45.933Z,33.37
2019-02-15T14:47:17.402Z,32.43
2019-02-15T14:49:48.592Z,34.60
2019-02-15T14:52:19.885Z,33.83
2019-02-15T14:54:56.078Z,34.07
2019-02-15T14:57:29.833Z,33.67
2019-02-15T15:00:01.087Z,32.67
2019-02-15T15:02:33.769Z,34.07
2019-02-15T15:05:05.540Z,34.57
2019-02-15T15:07:36.947Z,35.20
2019-02-15T15:10:08.636Z,33.23
2019-02-15T15:12:40.760Z,34.67
2019-02-15T15:15:12.362Z,33.27
2019-02-15T15:17:45.739Z,35.87
2019-02-15T15:20:16.915Z,35.67
2019-02-15T15:22:48.149Z,35.97
2019-02-15T15:25:19.137Z,36.60
2019-02-15T15:27:50.623Z,33.80
2019-02-15T15:30:21.373Z,35.93
2019-02-15T15:32:52.988Z,33.80
2019-02-15T15:35:24.657Z,34.77
2019-02-15T15:37:56.302Z,34.37
2019-02-15T15:40:27.901Z,37.47
2019-02-15T15:42:58.835Z,37.63
2019-02-15T15:45:33.894Z,36.17
2019-02-15T15:48:22.666Z,35.60
2019-02-15T15:50:53.185Z,33.60
2019-02-15T15:59:55.953Z,33.13
2019-02-15T16:02:27.312Z,31.23
2019-02-15T16:05:00.347Z,31.67
2019-02-15T16:07:31.737Z,29.23
2019-02-15T16:10:03.050Z,31.33
2019-02-15T16:12:34.358Z,31.27
2019-02-15T16:15:05.772Z,30.77
2019-02-15T16:17:38.096Z,28.50
2019-02-15T16:20:09.240Z,27.43
2019-02-15T16:22:41.319Z,29.00
2019-02-15T16:25:12.601Z,28.07
2019-02-15T16:27:44.849Z,28.17
2019-02-15T16:30:20.295Z,28.13
2019-02-15T16:32:56.537Z,29.07
2019-02-15T16:35:43.494Z,27.77
2019-02-15T16:38:15.386Z,29.50
2019-02-15T16:40:57.579Z,28.17
2019-02-15T16:43:31.094Z,30.77
2019-02-15T16:46:10.632Z,33.67
2019-02-15T16:48:42.468Z,33.13
2019-02-15T16:51:13.750Z,32.77
2019-02-15T16:53:44.434Z,31.90
2019-02-15T16:56:15.909Z,33.00
2019-02-15T16:58:48.337Z,32.23
2019-02-15T17:01:20.038Z,32.80
2019-02-15T17:03:51.894Z,36.20
2019-02-15T17:06:23.479Z,37.83
2019-02-15T17:08:55.177Z,36.03
2019-02-15T17:11:27.450Z,35.50
2019-02-15T17:13:58.685Z,39.10
2019-02-15T17:16:30.399Z,39.00
2019-02-15T17:19:01.682Z,41.87
2019-02-15T17:21:33.791Z,41.77
2019-02-15T17:24:05.010Z,45.50
2019-02-15T17:26:36.378Z,46.20
2019-02-15T17:29:07.671Z,41.60
2019-02-15T17:31:38.369Z,42.23
2019-02-15T17:34:09.596Z,41.50
2019-02-15T17:36:42.423Z,38.90
2019-02-15T17:39:14.024Z,37.53
2019-02-15T17:41:45.748Z,35.30
2019-02-15T17:44:17.410Z,34.73
2019-02-15T17:46:48.758Z,34.43
2019-02-15T17:49:21.069Z,32.47
2019-02-15T17:51:52.349Z,32.00
2019-02-15T17:54:23.727Z,32.73
2019-02-15T17:56:55.209Z,33.13
2019-02-15T17:59:26.545Z,32.20
2019-02-15T18:01:58.278Z,32.20
2019-02-15T18:04:30.161Z,34.70
2019-02-15T18:07:02.158Z,33.30
2019-02-15T18:09:34.047Z,34.67
2019-02-15T18:12:05.518Z,36.43
2019-02-15T18:14:38.444Z,35.93
2019-02-15T18:17:10.579Z,33.80
2019-02-15T18:19:47.308Z,36.20
2019-02-15T18:22:15.289Z,33.63
2019-02-15T18:24:46.813Z,33.43
2019-02-15T18:27:18.250Z,34.17
2019-02-15T18:29:49.708Z,33.60
2019-02-15T18:32:21.162Z,32.73
2019-02-15T18:34:53.352Z,31.80
2019-02-15T18:37:26.039Z,32.57
2019-02-15T18:39:57.753Z,32.77
2019-02-15T18:42:29.907Z,33.10
2019-02-15T18:45:01.813Z,31.73
2019-02-15T18:47:33.706Z,30.73
2019-02-15T18:50:05.287Z,28.37
2019-02-15T18:52:38.181Z,30.27
2019-02-15T18:55:09.825Z,27.87
2019-02-15T18:57:41.696Z,29.13
2019-02-15T19:00:14.987Z,27.93
2019-02-15T19:02:48.274Z,27.23
2019-02-15T19:05:19.767Z,27.43
2019-02-15T19:07:51.648Z,27.57
2019-02-15T19:10:25.769Z,27.13
2019-02-15T19:13:02.509Z,27.37
2019-02-15T19:15:34.598Z,24.87
2019-02-15T19:18:06.079Z,27.37
2019-02-15T19:20:37.465Z,25.07
2019-02-15T19:23:10.363Z,24.33
2019-02-15T19:25:52.228Z,23.53
2019-02-15T19:28:23.896Z,23.50
2019-02-15T19:30:55.329Z,25.23
2019-02-15T19:33:26.823Z,25.53
2019-02-15T19:36:01.218Z,27.80
2019-02-15T19:38:35.547Z,27.13
2019-02-15T19:41:08.446Z,26.50
2019-02-15T19:43:40.525Z,27.33
2019-02-15T19:46:11.830Z,27.20
2019-02-15T19:48:43.349Z,27.50
2019-02-15T19:51:15.246Z,28.13
2019-02-15T19:53:46.595Z,27.07
2019-02-15T19:56:18.098Z,26.53
2019-02-15T19:58:49.985Z,29.03
2019-02-15T20:01:21.474Z,26.87
2019-02-15T20:03:53.111Z,27.57
2019-02-15T20:06:24.430Z,27.10
2019-02-15T20:09:06.630Z,27.48
2019-02-15T20:11:38.665Z,27.07
2019-02-15T20:14:10.049Z,27.37
2019-02-15T20:16:42.024Z,29.73
2019-02-15T20:19:13.524Z,28.73
2019-02-15T20:21:50.052Z,30.90
2019-02-15T20:24:21.293Z,48.37
2019-02-15T20:26:52.845Z,41.47
2019-02-15T20:29:24.158Z,45.67
2019-02-15T20:31:55.647Z,43.33
2019-02-15T20:34:34.668Z,44.03
2019-02-15T20:37:07.874Z,41.37
2019-02-15T20:39:50.656Z,42.10
2019-02-15T20:42:30.528Z,43.57
2019-02-15T20:45:33.092Z,51.83
2019-02-15T20:48:00.626Z,51.80
2019-02-15T20:50:38.638Z,53.97
2019-02-15T20:53:10.176Z,47.07
2019-02-15T20:55:41.522Z,46.63
2019-02-15T20:58:12.838Z,44.90
2019-02-15T21:00:45.187Z,43.80
2019-02-15T21:03:16.754Z,43.47
2019-02-15T21:15:35.801Z,34.97
2019-02-15T21:18:07.308Z,33.10
2019-02-15T21:20:41.602Z,32.23
2019-02-15T21:23:13.684Z,32.00
2019-02-15T21:25:46.253Z,31.13
2019-02-15T21:28:17.629Z,33.00
2019-02-15T21:30:58.177Z,32.30
2019-02-15T21:33:34.151Z,29.97
2019-02-15T21:36:07.470Z,30.90
2019-02-15T21:38:42.493Z,31.30
2019-02-15T21:41:26.233Z,30.93
2019-02-15T21:43:59.256Z,30.50
2019-02-15T21:46:44.497Z,30.97
2019-02-15T21:49:18.690Z,30.47
2019-02-15T21:51:51.514Z,30.93
2019-02-15T21:54:24.396Z,30.30
2019-02-15T21:56:56.539Z,30.33
2019-02-15T21:59:31.210Z,29.83
2019-02-15T22:02:04.897Z,31.47
2019-02-15T22:04:40.529Z,28.90
2019-02-15T22:07:13.990Z,31.30
2019-02-15T22:09:47.532Z,30.83
2019-02-15T22:12:25.140Z,30.33
2019-02-15T22:14:58.095Z,30.47
2019-02-15T22:17:47.543Z,31.37
2019-02-15T22:20:27.047Z,31.93
2019-02-15T22:22:59.874Z,29.57
2019-02-15T22:25:38.669Z,30.13
2019-02-15T22:28:16.496Z,29.93
2019-02-15T22:30:48.543Z,31.60
2019-02-15T22:33:20.996Z,30.17
2019-02-15T22:35:52.420Z,31.33
2019-02-15T22:38:25.009Z,29.33
2019-02-15T22:41:12.829Z,30.60
2019-02-15T22:43:44.882Z,31.57
2019-02-15T22:46:16.250Z,33.27
2019-02-15T22:48:51.090Z,31.00
2019-02-15T22:51:31.481Z,29.90
2019-02-15T22:54:04.320Z,33.17
2019-02-15T22:56:39.054Z,32.63
2019-02-15T22:59:13.129Z,32.17
2019-02-15T23:01:44.605Z,31.20
2019-02-15T23:04:17.928Z,31.03
2019-02-15T23:06:50.343Z,31.27
2019-02-15T23:09:27.929Z,30.33
2019-02-15T23:12:00.440Z,30.53
2019-02-15T23:14:32.469Z,30.83
2019-02-15T23:17:05.597Z,30.03
2019-02-15T23:19:39.435Z,32.33
2019-02-15T23:22:13.189Z,32.97
2019-02-15T23:24:46.688Z,32.47
2019-02-15T23:27:19.251Z,30.03
2019-02-15T23:30:07.436Z,29.90
2019-02-15T23:32:40.189Z,31.20
2019-02-15T23:35:15.841Z,32.70
2019-02-15T23:37:56.537Z,30.43
2019-02-15T23:40:35.559Z,30.70
2019-02-15T23:43:09.933Z,29.77
2019-02-15T23:45:45.010Z,27.73
2019-02-15T23:48:17.461Z,30.20
2019-02-15T23:50:54.969Z,31.33
2019-02-15T23:53:34.341Z,30.80
2019-02-15T23:56:10.033Z,30.40
2019-02-15T23:58:42.524Z,31.33
